createdAt,value
2023-05-06T00:00:55.136Z,9.37
2023-05-06T00:02:29.727Z,10.30
2023-05-06T00:04:03.399Z,10.30
2023-05-06T00:05:37.806Z,10.27
2023-05-06T00:07:11.658Z,10.73
2023-05-06T00:08:45.982Z,11.30
2023-05-06T00:10:18.403Z,11.40
2023-05-06T00:11:53.231Z,11.20
2023-05-06T00:13:25.605Z,11.60
2023-05-06T00:14:59.031Z,11.57
2023-05-06T00:16:32.436Z,11.17
2023-05-06T00:18:06.022Z,11.07
2023-05-06T00:19:39.669Z,10.87
2023-05-06T00:21:13.058Z,11.07
2023-05-06T00:22:46.491Z,10.63
2023-05-06T00:24:19.918Z,11.47
2023-05-06T00:25:54.977Z,11.10
2023-05-06T00:27:29.768Z,10.87
2023-05-06T00:29:03.137Z,11.53
2023-05-06T00:30:36.543Z,11.60
2023-05-06T00:32:08.964Z,11.33
2023-05-06T00:33:42.201Z,11.43
2023-05-06T00:35:15.535Z,12.03
2023-05-06T00:36:48.565Z,11.80
2023-05-06T00:38:21.867Z,12.50
2023-05-06T00:39:54.908Z,11.87
2023-05-06T00:41:32.429Z,12.07
2023-05-06T00:43:06.975Z,12.63
2023-05-06T00:44:40.067Z,12.83
2023-05-06T00:46:14.686Z,13.77
2023-05-06T00:47:47.903Z,13.70
2023-05-06T00:49:20.768Z,14.10
2023-05-06T00:50:53.898Z,14.57
2023-05-06T00:52:27.221Z,14.30
2023-05-06T00:54:00.499Z,14.33
2023-05-06T00:55:33.890Z,14.03
2023-05-06T00:57:07.068Z,14.23
2023-05-06T00:58:42.277Z,13.93
2023-05-06T01:00:15.719Z,14.03
2023-05-06T01:01:48.863Z,14.70
2023-05-06T01:03:21.216Z,13.50
2023-05-06T01:04:55.479Z,13.13
2023-05-06T01:06:36.740Z,13.70
2023-05-06T01:08:18.713Z,13.57
2023-05-06T01:09:58.625Z,14.47
2023-05-06T01:11:42.415Z,13.13
2023-05-06T01:13:21.525Z,14.13
2023-05-06T01:15:06.528Z,14.43
2023-05-06T01:16:40.813Z,14.40
2023-05-06T01:18:22.487Z,13.87
2023-05-06T01:20:01.464Z,14.83
2023-05-06T01:21:35.598Z,15.70
2023-05-06T01:23:12.833Z,16.63
2023-05-06T01:24:46.956Z,15.40
2023-05-06T01:26:19.880Z,15.50
2023-05-06T01:27:52.990Z,14.93
2023-05-06T01:29:26.045Z,15.30
2023-05-06T01:31:04.668Z,16.43
2023-05-06T01:32:48.140Z,15.43
2023-05-06T01:34:34.633Z,14.23
2023-05-06T01:36:14.379Z,15.33
2023-05-06T01:37:53.515Z,16.23
2023-05-06T01:39:32.906Z,16.63
2023-05-06T01:41:06.369Z,15.40
2023-05-06T01:42:40.027Z,14.67
2023-05-06T01:44:13.474Z,15.27
2023-05-06T01:45:53.188Z,14.80
2023-05-06T01:47:26.781Z,15.60
2023-05-06T01:49:02.464Z,15.47
2023-05-06T01:50:36.745Z,15.40
2023-05-06T01:52:10.188Z,15.07
2023-05-06T01:53:42.299Z,15.17
2023-05-06T01:55:16.925Z,14.40
2023-05-06T01:56:50.085Z,14.37
2023-05-06T01:58:22.226Z,15.53
2023-05-06T01:59:55.483Z,15.60
2023-05-06T02:01:29.447Z,15.30
2023-05-06T02:03:02.748Z,15.73
2023-05-06T02:04:34.926Z,15.27
2023-05-06T02:06:08.517Z,15.23
2023-05-06T02:07:44.164Z,14.67
2023-05-06T02:09:17.298Z,15.17
2023-05-06T02:10:56.976Z,14.90
2023-05-06T02:12:30.291Z,15.70
2023-05-06T02:14:03.489Z,14.70
2023-05-06T02:15:39.267Z,14.97
2023-05-06T02:17:14.560Z,14.13
2023-05-06T02:18:48.524Z,14.70
2023-05-06T02:20:20.835Z,14.60
2023-05-06T02:21:53.917Z,14.10
2023-05-06T02:23:25.980Z,14.93
2023-05-06T02:24:59.539Z,14.73
2023-05-06T02:26:33.060Z,14.63
2023-05-06T02:28:06.158Z,15.07
2023-05-06T02:29:38.344Z,14.07
2023-05-06T02:31:15.795Z,14.63
2023-05-06T02:32:48.962Z,14.53
2023-05-06T02:34:21.102Z,14.33
2023-05-06T02:35:54.638Z,13.80
2023-05-06T02:37:27.797Z,14.90
2023-05-06T02:39:00.854Z,14.97
2023-05-06T02:40:33.922Z,15.13
2023-05-06T02:42:07.524Z,14.40
2023-05-06T02:43:40.607Z,14.03
2023-05-06T02:45:13.816Z,13.97
2023-05-06T02:46:46.880Z,15.40
2023-05-06T02:48:19.937Z,14.00
2023-05-06T02:49:53.041Z,13.73
2023-05-06T02:51:26.121Z,13.67
2023-05-06T02:52:59.236Z,13.60
2023-05-06T02:54:32.390Z,14.13
2023-05-06T02:56:06.088Z,14.37
2023-05-06T02:57:40.580Z,14.97
2023-05-06T02:59:13.670Z,15.57
2023-05-06T03:00:46.847Z,15.73
2023-05-06T03:02:19.969Z,14.47
2023-05-06T03:03:53.262Z,14.80
2023-05-06T03:05:26.344Z,14.53
2023-05-06T03:06:59.462Z,14.53
2023-05-06T03:08:32.731Z,13.37
2023-05-06T03:10:05.540Z,13.73
2023-05-06T03:11:41.022Z,12.93
2023-05-06T03:13:15.593Z,13.10
2023-05-06T03:14:47.896Z,14.17
2023-05-06T03:16:21.218Z,12.77
2023-05-06T03:17:57.577Z,13.27
2023-05-06T03:19:31.504Z,12.93
2023-05-06T03:21:04.942Z,11.57
2023-05-06T03:22:42.245Z,13.63
2023-05-06T03:24:15.582Z,12.87
2023-05-06T03:25:48.790Z,12.30
2023-05-06T03:27:20.880Z,13.17
2023-05-06T03:28:59.744Z,13.60
2023-05-06T03:30:33.131Z,12.63
2023-05-06T03:32:08.890Z,12.90
2023-05-06T03:33:47.789Z,12.63
2023-05-06T03:35:21.411Z,13.43
2023-05-06T03:36:58.855Z,12.20
2023-05-06T03:38:33.701Z,12.77
2023-05-06T03:40:10.735Z,12.20
2023-05-06T03:41:44.229Z,11.57
2023-05-06T03:43:17.584Z,12.30
2023-05-06T03:44:54.843Z,11.97
2023-05-06T03:46:27.729Z,12.07
2023-05-06T03:48:01.045Z,10.77
2023-05-06T03:49:35.346Z,11.57
2023-05-06T03:51:07.929Z,12.63
2023-05-06T03:52:41.142Z,12.63
2023-05-06T03:54:14.331Z,12.20
2023-05-06T03:55:46.491Z,12.30
2023-05-06T03:57:20.273Z,11.83
2023-05-06T03:58:54.145Z,11.83
2023-05-06T04:00:30.856Z,12.23
2023-05-06T04:02:04.050Z,11.93
2023-05-06T04:03:38.590Z,11.93
2023-05-06T04:05:11.045Z,11.77
2023-05-06T04:06:44.637Z,11.43
2023-05-06T04:08:18.133Z,12.13
2023-05-06T04:09:51.812Z,11.30
2023-05-06T04:11:24.590Z,12.20
2023-05-06T04:12:57.996Z,11.37
2023-05-06T04:14:36.182Z,12.00
2023-05-06T04:16:10.787Z,11.03
2023-05-06T04:17:46.557Z,11.53
2023-05-06T04:19:19.715Z,11.70
2023-05-06T04:20:53.612Z,11.17
2023-05-06T04:22:25.810Z,11.10
2023-05-06T04:24:00.199Z,11.50
2023-05-06T04:25:41.281Z,11.67
2023-05-06T04:27:14.479Z,10.80
2023-05-06T04:28:48.959Z,11.47
2023-05-06T04:30:22.654Z,11.10
2023-05-06T04:31:58.714Z,10.73
2023-05-06T04:33:33.773Z,10.83
2023-05-06T04:35:10.062Z,10.53
2023-05-06T04:36:46.012Z,11.13
2023-05-06T04:38:25.871Z,11.03
2023-05-06T04:39:59.558Z,10.57
2023-05-06T04:41:33.201Z,10.40
2023-05-06T04:43:06.553Z,11.43
2023-05-06T04:44:39.731Z,11.13
2023-05-06T04:46:14.569Z,11.10
2023-05-06T04:47:50.798Z,10.87
2023-05-06T04:49:24.962Z,10.70
2023-05-06T04:50:57.665Z,11.80
2023-05-06T04:52:30.952Z,11.13
2023-05-06T04:54:04.130Z,11.13
2023-05-06T04:55:36.487Z,12.23
2023-05-06T04:57:09.626Z,11.03
2023-05-06T04:58:43.459Z,11.93
2023-05-06T05:00:16.582Z,11.40
2023-05-06T05:01:49.751Z,12.67
2023-05-06T05:03:24.298Z,11.97
2023-05-06T05:04:59.547Z,11.87
2023-05-06T05:06:33.013Z,11.30
2023-05-06T05:08:06.759Z,12.37
2023-05-06T05:09:42.727Z,12.20
2023-05-06T05:11:16.518Z,11.73
2023-05-06T05:12:49.605Z,12.27
2023-05-06T05:14:22.912Z,12.03
2023-05-06T05:15:56.683Z,12.07
2023-05-06T05:17:32.896Z,12.40
2023-05-06T05:19:09.271Z,12.10
2023-05-06T05:20:43.078Z,11.33
2023-05-06T05:22:18.569Z,11.80
2023-05-06T05:23:51.724Z,12.73
2023-05-06T05:25:25.231Z,11.53
2023-05-06T05:26:58.431Z,10.80
2023-05-06T05:28:32.642Z,10.70
2023-05-06T05:30:09.618Z,11.63
2023-05-06T05:31:45.047Z,10.60
2023-05-06T05:33:18.010Z,10.73
2023-05-06T05:34:53.357Z,10.90
2023-05-06T05:36:27.709Z,10.60
2023-05-06T05:38:01.858Z,11.03
2023-05-06T05:39:35.643Z,11.90
2023-05-06T05:41:08.810Z,11.20
2023-05-06T05:42:42.078Z,10.30
2023-05-06T05:44:23.977Z,10.47
2023-05-06T05:45:57.330Z,10.53
2023-05-06T05:47:30.521Z,10.67
2023-05-06T05:49:03.749Z,10.47
2023-05-06T05:50:38.421Z,10.77
2023-05-06T05:52:12.377Z,11.00
2023-05-06T05:53:44.728Z,9.83
2023-05-06T05:55:19.016Z,10.23
2023-05-06T05:56:53.469Z,10.70
2023-05-06T05:58:27.539Z,9.83
2023-05-06T06:00:03.960Z,11.30
2023-05-06T06:01:38.212Z,10.87
2023-05-06T06:03:12.164Z,10.83
2023-05-06T06:04:45.473Z,10.93
2023-05-06T06:06:20.025Z,11.33
2023-05-06T06:07:53.241Z,10.83
2023-05-06T06:09:26.582Z,11.60
2023-05-06T06:10:59.013Z,11.10
2023-05-06T06:12:38.271Z,11.47
2023-05-06T06:14:11.748Z,10.37
2023-05-06T06:15:45.014Z,10.80
2023-05-06T06:17:18.236Z,10.90
2023-05-06T06:18:51.800Z,11.20
2023-05-06T06:20:25.365Z,10.67
2023-05-06T06:22:00.724Z,10.53
2023-05-06T06:23:33.909Z,11.07
2023-05-06T06:25:08.409Z,11.23
2023-05-06T06:26:41.624Z,10.20
2023-05-06T06:28:14.969Z,11.10
2023-05-06T06:29:49.784Z,11.53
2023-05-06T06:31:23.176Z,11.23
2023-05-06T06:32:58.775Z,11.50
2023-05-06T06:34:31.902Z,11.03
2023-05-06T06:36:05.637Z,11.87
2023-05-06T06:37:40.228Z,10.63
2023-05-06T06:39:13.564Z,11.83
2023-05-06T06:40:46.655Z,11.13
2023-05-06T06:42:19.832Z,11.63
2023-05-06T06:44:06.455Z,11.77
2023-05-06T06:45:39.623Z,11.87
2023-05-06T06:47:12.765Z,10.97
2023-05-06T06:48:45.867Z,12.43
2023-05-06T06:50:19.418Z,13.07
2023-05-06T06:51:52.782Z,13.03
2023-05-06T06:53:27.301Z,13.33
2023-05-06T06:55:00.404Z,14.00
2023-05-06T06:56:33.500Z,13.73
2023-05-06T06:58:05.804Z,13.23
2023-05-06T06:59:38.863Z,13.13
2023-05-06T07:01:12.160Z,14.53
2023-05-06T07:02:44.377Z,14.00
2023-05-06T07:04:17.543Z,13.27
2023-05-06T07:05:51.076Z,14.87
2023-05-06T07:07:23.226Z,15.07
2023-05-06T07:08:57.682Z,14.13
2023-05-06T07:10:30.892Z,13.23
2023-05-06T07:12:04.067Z,12.63
2023-05-06T07:13:37.400Z,12.40
2023-05-06T07:15:11.341Z,13.20
2023-05-06T07:16:46.400Z,12.40
2023-05-06T07:18:21.525Z,12.03
2023-05-06T07:19:54.638Z,11.43
2023-05-06T07:21:27.913Z,10.90
2023-05-06T07:23:01.077Z,12.00
2023-05-06T07:24:35.584Z,11.90
2023-05-06T07:26:08.685Z,11.80
2023-05-06T07:27:41.844Z,11.90
2023-05-06T07:29:15.498Z,12.27
2023-05-06T07:30:51.423Z,13.13
2023-05-06T07:32:24.597Z,13.40
2023-05-06T07:33:58.432Z,13.27
2023-05-06T07:35:31.562Z,16.10
2023-05-06T07:37:04.848Z,14.97
2023-05-06T07:38:37.941Z,14.67
2023-05-06T07:40:13.127Z,14.40
2023-05-06T07:41:46.520Z,15.97
2023-05-06T07:43:19.657Z,16.77
2023-05-06T07:44:52.777Z,16.60
2023-05-06T07:46:25.998Z,17.60
2023-05-06T07:47:59.189Z,16.53
2023-05-06T07:49:33.361Z,16.87
2023-05-06T07:51:06.560Z,16.33
2023-05-06T07:52:39.688Z,15.77
2023-05-06T07:54:12.867Z,17.80
2023-05-06T07:55:47.334Z,17.33
2023-05-06T07:57:19.492Z,17.20
2023-05-06T07:58:52.576Z,17.47
2023-05-06T08:00:25.933Z,15.80
2023-05-06T08:01:58.994Z,16.87
2023-05-06T08:03:32.680Z,17.20
2023-05-06T08:05:08.093Z,17.40
2023-05-06T08:06:41.295Z,17.07
2023-05-06T08:08:14.370Z,17.60
2023-05-06T08:09:47.604Z,18.67
2023-05-06T08:11:22.087Z,18.47
2023-05-06T08:12:55.189Z,17.90
2023-05-06T08:14:28.728Z,18.97
2023-05-06T08:16:02.369Z,17.53
2023-05-06T08:17:34.733Z,18.37
2023-05-06T08:19:07.887Z,18.23
2023-05-06T08:20:40.975Z,18.63
2023-05-06T08:22:14.963Z,18.77
2023-05-06T08:23:48.058Z,19.70
2023-05-06T08:25:21.109Z,20.00
2023-05-06T08:26:55.593Z,20.13
2023-05-06T08:28:29.246Z,22.73
2023-05-06T08:30:02.338Z,21.93
2023-05-06T08:31:34.529Z,22.67
2023-05-06T08:33:07.668Z,25.87
2023-05-06T08:34:40.959Z,24.47
2023-05-06T08:36:14.355Z,24.37
2023-05-06T08:37:47.469Z,23.10
2023-05-06T08:39:20.564Z,20.93
2023-05-06T08:40:55.337Z,19.93
2023-05-06T08:42:31.861Z,20.40
2023-05-06T08:44:06.438Z,18.67
2023-05-06T08:45:40.003Z,18.30
2023-05-06T08:47:13.478Z,18.20
2023-05-06T08:48:46.963Z,18.23
2023-05-06T08:50:20.327Z,17.00
2023-05-06T08:51:53.662Z,16.53
2023-05-06T08:53:27.016Z,18.33
2023-05-06T08:55:04.887Z,17.90
2023-05-06T08:56:39.710Z,19.00
2023-05-06T08:58:16.855Z,18.93
2023-05-06T08:59:50.032Z,19.37
2023-05-06T09:01:23.274Z,18.93
2023-05-06T09:02:56.675Z,18.60
2023-05-06T09:04:30.005Z,19.50
2023-05-06T09:06:03.357Z,19.80
2023-05-06T09:07:36.493Z,20.60
2023-05-06T09:09:09.588Z,18.23
2023-05-06T09:10:46.146Z,19.60
2023-05-06T09:12:19.359Z,19.00
2023-05-06T09:14:09.198Z,18.87
2023-05-06T09:15:42.333Z,20.83
2023-05-06T09:17:23.685Z,20.77
2023-05-06T09:18:57.194Z,20.47
2023-05-06T09:20:30.368Z,21.47
2023-05-06T09:22:04.546Z,21.10
2023-05-06T09:23:38.291Z,22.03
2023-05-06T09:25:12.096Z,23.03
2023-05-06T09:26:46.713Z,23.07
2023-05-06T09:28:20.933Z,22.97
2023-05-06T09:30:03.969Z,22.47
2023-05-06T09:31:42.653Z,24.20
2023-05-06T09:33:15.877Z,22.10
2023-05-06T09:34:50.429Z,23.50
2023-05-06T09:36:24.395Z,24.43
2023-05-06T09:37:57.758Z,24.17
2023-05-06T09:39:30.921Z,24.07
2023-05-06T09:41:06.559Z,26.67
2023-05-06T09:42:39.830Z,25.40
2023-05-06T09:44:14.027Z,24.07
2023-05-06T09:45:48.753Z,23.37
2023-05-06T09:47:23.386Z,22.73
2023-05-06T09:48:58.260Z,24.07
2023-05-06T09:50:31.652Z,25.20
2023-05-06T09:52:04.949Z,23.53
2023-05-06T09:53:38.703Z,22.53
2023-05-06T09:55:12.972Z,21.87
2023-05-06T09:56:47.518Z,22.10
2023-05-06T09:58:21.039Z,22.27
2023-05-06T09:59:55.275Z,21.27
2023-05-06T10:01:36.905Z,22.53
2023-05-06T10:03:11.707Z,22.67
2023-05-06T10:04:46.007Z,21.17
2023-05-06T10:06:21.207Z,22.00
2023-05-06T10:07:56.187Z,24.43
2023-05-06T10:09:31.100Z,22.60
2023-05-06T10:11:06.225Z,23.27
2023-05-06T10:12:39.951Z,24.10
2023-05-06T10:14:13.341Z,23.40
2023-05-06T10:15:48.930Z,22.17
2023-05-06T10:17:26.021Z,22.10
2023-05-06T10:19:00.988Z,23.63
2023-05-06T10:20:36.811Z,23.60
2023-05-06T10:22:29.514Z,21.83
2023-05-06T10:24:09.035Z,23.03
2023-05-06T10:25:43.898Z,23.30
2023-05-06T10:27:24.499Z,22.13
2023-05-06T10:28:58.047Z,23.90
2023-05-06T10:30:33.516Z,22.83
2023-05-06T10:32:08.124Z,22.40
2023-05-06T10:33:47.240Z,23.33
2023-05-06T10:35:31.958Z,21.53
2023-05-06T10:37:06.811Z,22.27
2023-05-06T10:38:43.262Z,22.03
2023-05-06T10:40:16.612Z,21.97
2023-05-06T10:41:50.610Z,21.90
2023-05-06T10:43:25.864Z,20.00
2023-05-06T10:45:00.548Z,20.80
2023-05-06T10:46:34.387Z,21.37
2023-05-06T10:48:09.769Z,23.23
2023-05-06T10:49:45.607Z,22.63
2023-05-06T10:51:27.232Z,21.93
2023-05-06T10:53:00.731Z,27.60
2023-05-06T10:54:47.707Z,22.63
2023-05-06T10:56:19.819Z,24.33
2023-05-06T10:57:55.998Z,26.93
2023-05-06T10:59:30.082Z,24.07
2023-05-06T11:01:03.369Z,24.43
2023-05-06T11:02:36.637Z,21.23
2023-05-06T11:04:10.680Z,20.37
2023-05-06T11:05:54.068Z,20.40
2023-05-06T11:07:27.381Z,19.27
2023-05-06T11:09:01.549Z,19.30
2023-05-06T11:10:35.707Z,20.03
2023-05-06T11:12:08.978Z,18.93
2023-05-06T11:13:43.984Z,20.80
2023-05-06T11:15:21.459Z,19.93
2023-05-06T11:16:55.519Z,22.07
2023-05-06T11:18:44.701Z,20.73
2023-05-06T11:20:22.151Z,19.67
2023-05-06T11:21:58.312Z,19.13
2023-05-06T11:24:04.028Z,16.60
2023-05-06T11:25:41.451Z,16.30
2023-05-06T11:27:19.553Z,16.93
2023-05-06T11:28:51.700Z,15.63
2023-05-06T11:30:24.946Z,15.17
2023-05-06T11:31:58.387Z,16.50
2023-05-06T11:33:34.376Z,14.87
2023-05-06T11:35:08.589Z,16.37
2023-05-06T11:37:02.540Z,16.13
2023-05-06T11:38:43.323Z,16.97
2023-05-06T11:40:16.827Z,16.23
2023-05-06T11:41:49.917Z,15.73
2023-05-06T11:43:23.379Z,14.60
2023-05-06T11:44:57.259Z,14.63
2023-05-06T11:46:32.165Z,14.83
2023-05-06T11:48:05.699Z,13.57
2023-05-06T11:49:41.450Z,13.30
2023-05-06T11:51:13.661Z,13.53
2023-05-06T11:52:48.136Z,14.60
2023-05-06T11:54:22.882Z,14.73
2023-05-06T11:55:56.352Z,14.17
2023-05-06T11:57:29.430Z,14.97
2023-05-06T11:59:01.521Z,13.93
2023-05-06T12:00:34.689Z,13.60
2023-05-06T12:02:09.484Z,13.40
2023-05-06T12:03:41.799Z,12.13
2023-05-06T12:05:14.995Z,12.10
2023-05-06T12:06:48.137Z,12.33
2023-05-06T12:08:27.958Z,12.13
2023-05-06T12:10:04.087Z,12.10
2023-05-06T12:11:37.717Z,13.63
2023-05-06T12:13:11.082Z,13.30
2023-05-06T12:14:46.236Z,13.60
2023-05-06T12:16:18.503Z,13.57
2023-05-06T12:17:51.837Z,13.60
2023-05-06T12:19:26.666Z,13.07
2023-05-06T12:21:03.670Z,12.60
2023-05-06T12:22:38.982Z,12.73
2023-05-06T12:24:13.903Z,12.23
2023-05-06T12:25:46.060Z,12.53
2023-05-06T12:27:32.808Z,11.50
2023-05-06T12:29:08.515Z,12.33
2023-05-06T12:30:41.608Z,11.23
2023-05-06T12:32:14.836Z,12.60
2023-05-06T12:33:50.445Z,10.87
2023-05-06T12:35:27.329Z,10.40
2023-05-06T12:37:00.390Z,10.63
2023-05-06T12:38:33.662Z,10.93
2023-05-06T12:40:17.870Z,10.30
2023-05-06T12:41:50.964Z,10.90
2023-05-06T12:43:30.621Z,10.97
2023-05-06T12:45:15.469Z,10.93
2023-05-06T12:46:52.942Z,10.07
2023-05-06T12:48:26.021Z,10.97
2023-05-06T12:50:00.699Z,10.27
2023-05-06T12:51:34.485Z,10.43
2023-05-06T12:53:09.787Z,10.70
2023-05-06T12:54:42.880Z,13.53
2023-05-06T12:56:17.322Z,14.13
2023-05-06T12:57:52.128Z,13.33
2023-05-06T12:59:26.588Z,14.20
2023-05-06T13:00:59.709Z,14.70
2023-05-06T13:02:32.921Z,15.07
2023-05-06T13:04:05.481Z,15.70
2023-05-06T13:05:38.615Z,15.80
2023-05-06T13:07:11.931Z,15.57
2023-05-06T13:08:44.052Z,15.23
2023-05-06T13:10:17.118Z,14.73
2023-05-06T13:11:51.923Z,14.63
2023-05-06T13:13:25.045Z,13.33
2023-05-06T13:14:58.154Z,13.80
2023-05-06T13:16:32.162Z,14.53
2023-05-06T13:18:06.013Z,14.37
2023-05-06T13:19:39.117Z,14.93
2023-05-06T13:21:13.162Z,14.10
2023-05-06T13:22:54.230Z,13.97
2023-05-06T13:24:27.696Z,14.50
2023-05-06T13:26:05.241Z,14.03
2023-05-06T13:27:40.474Z,16.57
2023-05-06T13:29:13.550Z,14.07
2023-05-06T13:30:46.687Z,16.03
2023-05-06T13:32:19.761Z,13.20
2023-05-06T13:33:52.890Z,14.17
2023-05-06T13:35:26.274Z,13.67
2023-05-06T13:37:00.161Z,13.53
2023-05-06T13:38:33.252Z,12.50
2023-05-06T13:40:07.789Z,12.43
2023-05-06T13:41:40.930Z,14.60
2023-05-06T13:43:15.567Z,12.07
2023-05-06T13:44:48.686Z,11.17
2023-05-06T13:46:23.156Z,13.70
2023-05-06T13:47:56.328Z,12.70
2023-05-06T13:49:29.436Z,13.03
2023-05-06T13:51:02.723Z,13.17
2023-05-06T13:52:36.196Z,15.70
2023-05-06T13:54:08.351Z,14.17
2023-05-06T13:55:42.004Z,13.97
2023-05-06T13:57:15.065Z,13.40
2023-05-06T13:58:49.768Z,14.03
2023-05-06T14:00:23.259Z,14.60
2023-05-06T14:01:56.555Z,14.13
2023-05-06T14:03:29.668Z,14.83
2023-05-06T14:05:03.405Z,13.53
2023-05-06T14:06:36.562Z,14.43
2023-05-06T14:08:09.666Z,12.90
2023-05-06T14:09:42.746Z,13.10
2023-05-06T14:11:15.869Z,13.33
2023-05-06T14:12:48.320Z,13.87
2023-05-06T14:14:22.850Z,14.77
2023-05-06T14:15:56.375Z,15.23
2023-05-06T14:17:29.539Z,15.13
2023-05-06T14:19:02.880Z,14.07
2023-05-06T14:20:35.954Z,15.60
2023-05-06T14:22:08.033Z,13.97
2023-05-06T14:23:41.114Z,15.97
2023-05-06T14:25:14.350Z,20.17
2023-05-06T14:26:47.650Z,24.43
2023-05-06T14:28:20.755Z,27.03
2023-05-06T14:29:55.224Z,20.10
2023-05-06T14:31:29.550Z,16.57
2023-05-06T14:33:02.822Z,17.23
2023-05-06T14:34:36.514Z,16.33
2023-05-06T14:36:10.028Z,17.00
2023-05-06T14:37:43.085Z,16.57
2023-05-06T14:39:16.606Z,17.73
2023-05-06T14:40:49.678Z,17.90
2023-05-06T14:42:22.764Z,16.43
2023-05-06T14:43:55.851Z,18.20
2023-05-06T14:45:31.058Z,17.30
2023-05-06T14:47:03.194Z,18.70
2023-05-06T14:48:36.379Z,19.03
2023-05-06T14:50:10.918Z,18.30
2023-05-06T14:51:44.640Z,18.60
2023-05-06T14:53:17.676Z,19.70
2023-05-06T14:54:50.860Z,20.13
2023-05-06T14:56:23.980Z,19.80
2023-05-06T14:57:57.181Z,26.43
2023-05-06T14:59:30.281Z,22.10
2023-05-06T15:01:04.846Z,23.77
2023-05-06T15:02:40.626Z,23.63
2023-05-06T15:04:13.841Z,19.27
2023-05-06T15:05:47.118Z,20.90
2023-05-06T15:07:20.748Z,19.97
2023-05-06T15:08:53.844Z,20.77
2023-05-06T15:10:26.946Z,19.80
2023-05-06T15:12:00.400Z,20.33
2023-05-06T15:13:33.721Z,19.60
2023-05-06T15:15:08.623Z,20.47
2023-05-06T15:16:43.266Z,19.50
2023-05-06T15:18:16.428Z,20.37
2023-05-06T15:19:49.757Z,23.43
2023-05-06T15:21:22.872Z,19.83
2023-05-06T15:22:56.023Z,19.07
2023-05-06T15:24:29.090Z,19.50
2023-05-06T15:26:02.197Z,19.13
2023-05-06T15:27:37.306Z,18.57
2023-05-06T15:29:10.559Z,18.77
2023-05-06T15:30:43.663Z,17.93
2023-05-06T15:32:18.307Z,17.70
2023-05-06T15:33:51.414Z,18.23
2023-05-06T15:35:24.582Z,19.13
2023-05-06T15:37:00.993Z,19.33
2023-05-06T15:39:00.699Z,20.07
2023-05-06T15:40:34.187Z,19.73
2023-05-06T15:42:07.519Z,19.63
2023-05-06T15:43:39.627Z,20.50
2023-05-06T15:45:13.521Z,19.17
2023-05-06T15:46:46.661Z,18.57
2023-05-06T15:48:21.231Z,18.37
2023-05-06T15:49:55.035Z,18.87
2023-05-06T15:51:28.525Z,19.57
2023-05-06T15:53:02.496Z,20.13
2023-05-06T15:54:37.536Z,18.57
2023-05-06T15:56:18.154Z,18.47
2023-05-06T15:57:53.604Z,19.70
2023-05-06T15:59:27.001Z,18.90
2023-05-06T16:01:00.082Z,19.33
2023-05-06T16:02:33.878Z,18.67
2023-05-06T16:04:08.680Z,18.17
2023-05-06T16:05:42.039Z,18.63
2023-05-06T16:07:15.198Z,18.17
2023-05-06T16:08:48.276Z,18.80
2023-05-06T16:10:21.510Z,17.10
2023-05-06T16:11:55.096Z,18.23
2023-05-06T16:13:28.285Z,17.83
2023-05-06T16:15:01.636Z,17.07
2023-05-06T16:16:35.020Z,17.37
2023-05-06T16:18:08.384Z,15.90
2023-05-06T16:19:42.897Z,15.70
2023-05-06T16:21:15.977Z,16.57
2023-05-06T16:22:51.194Z,15.67
2023-05-06T16:24:24.308Z,16.10
2023-05-06T16:25:57.978Z,15.77
2023-05-06T16:27:31.189Z,16.10
2023-05-06T16:29:04.324Z,17.53
2023-05-06T16:30:37.668Z,16.33
2023-05-06T16:32:10.766Z,19.47
2023-05-06T16:33:43.868Z,17.50
2023-05-06T16:35:19.555Z,17.20
2023-05-06T16:36:52.835Z,16.17
2023-05-06T16:38:26.251Z,16.60
2023-05-06T16:39:59.608Z,17.97
2023-05-06T16:41:32.789Z,17.53
2023-05-06T16:43:05.904Z,17.90
2023-05-06T16:44:39.064Z,18.40
2023-05-06T16:46:12.160Z,18.43
2023-05-06T16:47:45.857Z,18.43
2023-05-06T16:49:21.075Z,17.23
2023-05-06T16:50:55.609Z,18.73
2023-05-06T16:52:30.155Z,17.47
2023-05-06T16:54:03.907Z,18.70
2023-05-06T16:55:37.274Z,16.43
2023-05-06T16:57:09.533Z,18.37
2023-05-06T16:58:42.847Z,17.93
2023-05-06T17:00:16.895Z,16.70
2023-05-06T17:01:50.024Z,16.30
2023-05-06T17:03:23.511Z,15.97
2023-05-06T17:04:55.636Z,16.50
2023-05-06T17:06:31.512Z,15.37
2023-05-06T17:08:05.528Z,16.63
2023-05-06T17:09:38.858Z,16.07
2023-05-06T17:11:11.974Z,15.97
2023-05-06T17:12:45.137Z,15.80
2023-05-06T17:14:19.821Z,17.17
2023-05-06T17:15:52.972Z,17.30
2023-05-06T17:17:28.666Z,16.33
2023-05-06T17:19:01.814Z,16.37
2023-05-06T17:20:47.522Z,16.50
2023-05-06T17:22:29.262Z,16.40
2023-05-06T17:24:02.434Z,17.63
2023-05-06T17:25:35.582Z,17.93
2023-05-06T17:27:08.645Z,18.03
2023-05-06T17:28:41.733Z,16.67
2023-05-06T17:30:15.157Z,19.67
2023-05-06T17:31:49.618Z,16.07
2023-05-06T17:33:22.897Z,17.93
2023-05-06T17:34:56.072Z,16.03
2023-05-06T17:36:28.254Z,17.33
2023-05-06T17:38:02.794Z,16.03
2023-05-06T17:39:36.314Z,17.37
2023-05-06T17:41:09.457Z,17.00
2023-05-06T17:42:42.484Z,15.97
2023-05-06T17:44:17.521Z,16.83
2023-05-06T17:45:50.709Z,16.67
2023-05-06T17:47:24.007Z,17.47
2023-05-06T17:48:56.291Z,18.90
2023-05-06T17:50:29.371Z,18.30
2023-05-06T17:52:02.465Z,17.73
2023-05-06T17:53:38.595Z,18.53
2023-05-06T17:55:16.429Z,17.90
2023-05-06T17:56:52.898Z,17.07
2023-05-06T17:58:26.094Z,18.93
2023-05-06T17:59:59.162Z,17.90
2023-05-06T18:01:32.409Z,19.10
2023-05-06T18:03:05.828Z,16.80
2023-05-06T18:04:39.052Z,17.50
2023-05-06T18:06:12.718Z,18.93
2023-05-06T18:07:45.861Z,18.67
2023-05-06T18:09:20.436Z,18.37
2023-05-06T18:10:53.530Z,18.57
2023-05-06T18:12:27.300Z,17.17
2023-05-06T18:14:00.550Z,18.00
2023-05-06T18:15:33.685Z,17.80
2023-05-06T18:17:06.777Z,17.27
2023-05-06T18:18:39.833Z,17.47
2023-05-06T18:20:13.963Z,17.13
2023-05-06T18:21:47.174Z,18.53
2023-05-06T18:23:20.272Z,17.10
2023-05-06T18:24:55.375Z,17.90
2023-05-06T18:28:08.511Z,18.00
2023-05-06T18:29:42.023Z,18.83
2023-05-06T18:31:15.166Z,18.77
2023-05-06T18:32:50.720Z,18.33
2023-05-06T18:34:24.524Z,19.43
2023-05-06T18:35:58.052Z,18.63
2023-05-06T18:37:31.168Z,18.93
2023-05-06T18:39:04.532Z,18.20
2023-05-06T18:40:38.951Z,18.00
2023-05-06T18:42:12.014Z,16.20
2023-05-06T18:43:45.087Z,17.83
2023-05-06T18:45:18.375Z,16.57
2023-05-06T18:46:51.447Z,16.20
2023-05-06T18:48:24.556Z,15.60
2023-05-06T18:50:00.481Z,17.17
2023-05-06T18:51:33.555Z,16.87
2023-05-06T18:53:06.648Z,17.07
2023-05-06T18:54:39.682Z,16.13
2023-05-06T18:56:15.215Z,13.97
2023-05-06T18:57:48.280Z,13.63
2023-05-06T18:59:21.643Z,17.03
2023-05-06T19:00:55.438Z,16.27
2023-05-06T19:02:28.687Z,16.30
2023-05-06T19:04:02.202Z,17.17
2023-05-06T19:05:37.879Z,16.00
2023-05-06T19:07:11.200Z,15.50
2023-05-06T19:08:44.331Z,15.87
2023-05-06T19:10:17.443Z,14.03
2023-05-06T19:11:51.880Z,14.53
2023-05-06T19:13:25.246Z,13.43
2023-05-06T19:14:58.730Z,13.73
2023-05-06T19:16:31.849Z,14.40
2023-05-06T19:18:05.139Z,14.60
2023-05-06T19:19:39.135Z,15.63
2023-05-06T19:21:12.519Z,14.73
2023-05-06T19:22:45.736Z,14.77
2023-05-06T19:24:18.935Z,14.93
2023-05-06T19:25:52.046Z,16.27
2023-05-06T19:27:26.479Z,15.70
2023-05-06T19:28:59.568Z,15.43
2023-05-06T19:30:33.876Z,16.07
2023-05-06T19:32:07.378Z,16.07
2023-05-06T19:33:40.936Z,14.70
2023-05-06T19:35:14.573Z,16.00
2023-05-06T19:36:47.617Z,17.03
2023-05-06T19:38:21.306Z,17.03
2023-05-06T19:39:54.392Z,15.83
2023-05-06T19:41:27.491Z,17.67
2023-05-06T19:43:03.847Z,17.03
2023-05-06T19:44:36.952Z,16.33
2023-05-06T19:46:10.449Z,16.67
2023-05-06T19:47:43.656Z,18.07
2023-05-06T19:49:15.781Z,17.93
2023-05-06T19:50:48.923Z,21.00
2023-05-06T19:52:23.384Z,20.40
2023-05-06T19:53:56.508Z,19.50
2023-05-06T19:55:29.557Z,18.57
2023-05-06T19:57:02.988Z,18.27
2023-05-06T19:58:37.555Z,17.33
2023-05-06T20:00:12.161Z,17.57
2023-05-06T20:01:45.422Z,16.77
2023-05-06T20:03:18.623Z,16.03
2023-05-06T20:04:51.922Z,15.40
2023-05-06T20:06:25.057Z,19.20
2023-05-06T20:07:59.607Z,16.53
2023-05-06T20:09:32.729Z,16.50
2023-05-06T20:11:05.936Z,16.60
2023-05-06T20:12:39.071Z,16.80
2023-05-06T20:14:13.611Z,17.90
2023-05-06T20:15:45.918Z,20.07
2023-05-06T20:17:19.098Z,17.17